sensor_id;sensor_type;location;lat;lon;timestamp;P1;durP1;ratioP1;P2;durP2;ratioP2
39880;SDS011;25554;44.954;10.068;2023-12-22T00:04:17;26.60;;;16.27;;
39880;SDS011;25554;44.954;10.068;2023-12-22T00:09:10;22.27;;;14.15;;
39880;SDS011;25554;44.954;10.068;2023-12-22T00:11:36;23.55;;;15.80;;
39880;SDS011;25554;44.954;10.068;2023-12-22T00:14:03;27.27;;;15.55;;
39880;SDS011;25554;44.954;10.068;2023-12-22T00:18:55;26.17;;;14.88;;
39880;SDS011;25554;44.954;10.068;2023-12-22T00:21:23;23.90;;;14.80;;
39880;SDS011;25554;44.954;10.068;2023-12-22T00:26:15;24.13;;;14.23;;
39880;SDS011;25554;44.954;10.068;2023-12-22T00:28:41;23.48;;;15.18;;
39880;SDS011;25554;44.954;10.068;2023-12-22T00:31:08;21.52;;;14.23;;
39880;SDS011;25554;44.954;10.068;2023-12-22T00:33:34;25.95;;;14.98;;
39880;SDS011;25554;44.954;10.068;2023-12-22T00:36:01;23.77;;;14.55;;
39880;SDS011;25554;44.954;10.068;2023-12-22T00:38:27;23.83;;;15.05;;
39880;SDS011;25554;44.954;10.068;2023-12-22T00:40:54;28.15;;;15.40;;
39880;SDS011;25554;44.954;10.068;2023-12-22T00:43:20;22.95;;;14.93;;
39880;SDS011;25554;44.954;10.068;2023-12-22T00:45:47;23.25;;;14.45;;
39880;SDS011;25554;44.954;10.068;2023-12-22T00:50:39;28.63;;;15.57;;
39880;SDS011;25554;44.954;10.068;2023-12-22T00:53:05;24.88;;;16.33;;
39880;SDS011;25554;44.954;10.068;2023-12-22T00:55:32;27.13;;;16.38;;
39880;SDS011;25554;44.954;10.068;2023-12-22T00:57:58;25.17;;;15.80;;
39880;SDS011;25554;44.954;10.068;2023-12-22T01:02:50;29.02;;;14.95;;
39880;SDS011;25554;44.954;10.068;2023-12-22T01:05:17;25.70;;;15.40;;
39880;SDS011;25554;44.954;10.068;2023-12-22T01:10:09;23.33;;;14.63;;
39880;SDS011;25554;44.954;10.068;2023-12-22T01:12:36;22.80;;;14.80;;
39880;SDS011;25554;44.954;10.068;2023-12-22T01:17:29;21.23;;;13.20;;
39880;SDS011;25554;44.954;10.068;2023-12-22T01:22:21;23.75;;;13.88;;
39880;SDS011;25554;44.954;10.068;2023-12-22T01:24:48;23.70;;;13.65;;
39880;SDS011;25554;44.954;10.068;2023-12-22T01:27:15;20.80;;;13.07;;
39880;SDS011;25554;44.954;10.068;2023-12-22T01:32:07;19.63;;;11.88;;
39880;SDS011;25554;44.954;10.068;2023-12-22T01:34:33;20.33;;;11.95;;
39880;SDS011;25554;44.954;10.068;2023-12-22T01:37:00;18.00;;;12.00;;
39880;SDS011;25554;44.954;10.068;2023-12-22T01:39:26;21.40;;;13.75;;
39880;SDS011;25554;44.954;10.068;2023-12-22T01:41:53;18.83;;;12.32;;
39880;SDS011;25554;44.954;10.068;2023-12-22T01:46:45;15.48;;;10.55;;
39880;SDS011;25554;44.954;10.068;2023-12-22T01:49:11;17.85;;;11.57;;
39880;SDS011;25554;44.954;10.068;2023-12-22T01:51:39;20.52;;;12.13;;
39880;SDS011;25554;44.954;10.068;2023-12-22T01:54:07;18.15;;;11.82;;
39880;SDS011;25554;44.954;10.068;2023-12-22T01:56:33;16.63;;;11.43;;
39880;SDS011;25554;44.954;10.068;2023-12-22T01:59:00;18.58;;;11.40;;
39880;SDS011;25554;44.954;10.068;2023-12-22T02:01:28;17.00;;;11.32;;
39880;SDS011;25554;44.954;10.068;2023-12-22T02:03:54;23.38;;;10.98;;
39880;SDS011;25554;44.954;10.068;2023-12-22T02:06:22;22.60;;;12.00;;
39880;SDS011;25554;44.954;10.068;2023-12-22T02:08:49;17.85;;;11.30;;
39880;SDS011;25554;44.954;10.068;2023-12-22T02:11:16;18.40;;;10.77;;
39880;SDS011;25554;44.954;10.068;2023-12-22T02:16:20;15.90;;;9.85;;
39880;SDS011;25554;44.954;10.068;2023-12-22T02:18:49;13.52;;;8.77;;
39880;SDS011;25554;44.954;10.068;2023-12-22T02:21:18;13.77;;;8.77;;
39880;SDS011;25554;44.954;10.068;2023-12-22T02:23:47;18.25;;;9.60;;
39880;SDS011;25554;44.954;10.068;2023-12-22T02:26:27;12.57;;;8.43;;
39880;SDS011;25554;44.954;10.068;2023-12-22T02:28:59;14.27;;;8.23;;
39880;SDS011;25554;44.954;10.068;2023-12-22T02:31:36;12.20;;;7.65;;
39880;SDS011;25554;44.954;10.068;2023-12-22T02:34:12;13.23;;;8.38;;
39880;SDS011;25554;44.954;10.068;2023-12-22T02:36:44;13.77;;;8.00;;
39880;SDS011;25554;44.954;10.068;2023-12-22T02:39:12;13.75;;;8.10;;
39880;SDS011;25554;44.954;10.068;2023-12-22T02:41:40;12.45;;;8.40;;
39880;SDS011;25554;44.954;10.068;2023-12-22T02:44:07;10.90;;;7.97;;
39880;SDS011;25554;44.954;10.068;2023-12-22T02:46:34;16.02;;;7.75;;
39880;SDS011;25554;44.954;10.068;2023-12-22T02:49:02;9.13;;;5.78;;
39880;SDS011;25554;44.954;10.068;2023-12-22T02:51:28;9.60;;;6.47;;
39880;SDS011;25554;44.954;10.068;2023-12-22T02:53:54;9.85;;;6.68;;
39880;SDS011;25554;44.954;10.068;2023-12-22T02:56:21;12.45;;;6.90;;
39880;SDS011;25554;44.954;10.068;2023-12-22T02:58:47;9.13;;;6.57;;
39880;SDS011;25554;44.954;10.068;2023-12-22T03:01:13;11.52;;;6.38;;
39880;SDS011;25554;44.954;10.068;2023-12-22T03:03:40;8.68;;;6.07;;
39880;SDS011;25554;44.954;10.068;2023-12-22T03:06:06;9.52;;;6.35;;
39880;SDS011;25554;44.954;10.068;2023-12-22T03:08:32;11.52;;;5.90;;
39880;SDS011;25554;44.954;10.068;2023-12-22T03:10:59;9.70;;;5.63;;
39880;SDS011;25554;44.954;10.068;2023-12-22T03:13:25;8.00;;;5.15;;
39880;SDS011;25554;44.954;10.068;2023-12-22T03:15:51;4.53;;;3.50;;
39880;SDS011;25554;44.954;10.068;2023-12-22T03:18:18;5.80;;;3.03;;
39880;SDS011;25554;44.954;10.068;2023-12-22T03:20:44;3.05;;;2.38;;
39880;SDS011;25554;44.954;10.068;2023-12-22T03:23:10;2.75;;;1.58;;
39880;SDS011;25554;44.954;10.068;2023-12-22T03:25:36;4.55;;;1.05;;
39880;SDS011;25554;44.954;10.068;2023-12-22T03:28:03;2.45;;;0.88;;
39880;SDS011;25554;44.954;10.068;2023-12-22T03:30:29;1.20;;;0.70;;
39880;SDS011;25554;44.954;10.068;2023-12-22T03:35:22;1.25;;;0.63;;
39880;SDS011;25554;44.954;10.068;2023-12-22T03:37:48;1.52;;;0.90;;
39880;SDS011;25554;44.954;10.068;2023-12-22T03:40:14;2.17;;;0.73;;
39880;SDS011;25554;44.954;10.068;2023-12-22T03:42:41;1.05;;;0.70;;
39880;SDS011;25554;44.954;10.068;2023-12-22T03:45:07;1.98;;;0.73;;
39880;SDS011;25554;44.954;10.068;2023-12-22T03:47:33;5.18;;;0.80;;
39880;SDS011;25554;44.954;10.068;2023-12-22T03:50:00;1.70;;;0.52;;
39880;SDS011;25554;44.954;10.068;2023-12-22T03:52:26;0.93;;;0.65;;
39880;SDS011;25554;44.954;10.068;2023-12-22T03:54:53;1.63;;;0.60;;
39880;SDS011;25554;44.954;10.068;2023-12-22T03:57:19;0.73;;;0.70;;
39880;SDS011;25554;44.954;10.068;2023-12-22T03:59:45;1.48;;;1.10;;
39880;SDS011;25554;44.954;10.068;2023-12-22T04:02:14;0.90;;;0.63;;
39880;SDS011;25554;44.954;10.068;2023-12-22T04:04:41;0.75;;;0.65;;
39880;SDS011;25554;44.954;10.068;2023-12-22T04:07:07;1.25;;;0.63;;
39880;SDS011;25554;44.954;10.068;2023-12-22T04:09:33;2.45;;;0.90;;
39880;SDS011;25554;44.954;10.068;2023-12-22T04:12:02;1.23;;;0.77;;
39880;SDS011;25554;44.954;10.068;2023-12-22T04:14:28;1.25;;;0.80;;
39880;SDS011;25554;44.954;10.068;2023-12-22T04:16:55;4.28;;;0.90;;
39880;SDS011;25554;44.954;10.068;2023-12-22T04:19:22;1.40;;;0.63;;
39880;SDS011;25554;44.954;10.068;2023-12-22T04:21:49;0.70;;;0.70;;
39880;SDS011;25554;44.954;10.068;2023-12-22T04:24:15;2.05;;;0.77;;
39880;SDS011;25554;44.954;10.068;2023-12-22T04:26:42;3.00;;;0.73;;
39880;SDS011;25554;44.954;10.068;2023-12-22T04:29:08;1.27;;;0.70;;
39880;SDS011;25554;44.954;10.068;2023-12-22T04:31:34;2.45;;;1.02;;
39880;SDS011;25554;44.954;10.068;2023-12-22T04:34:01;4.38;;;0.77;;
39880;SDS011;25554;44.954;10.068;2023-12-22T04:36:27;0.68;;;0.50;;
39880;SDS011;25554;44.954;10.068;2023-12-22T04:38:53;3.20;;;0.90;;
39880;SDS011;25554;44.954;10.068;2023-12-22T04:41:20;2.03;;;0.60;;
39880;SDS011;25554;44.954;10.068;2023-12-22T04:43:46;4.43;;;0.68;;
39880;SDS011;25554;44.954;10.068;2023-12-22T04:46:12;2.42;;;0.60;;
39880;SDS011;25554;44.954;10.068;2023-12-22T04:48:39;3.15;;;0.45;;
39880;SDS011;25554;44.954;10.068;2023-12-22T04:51:05;2.22;;;0.63;;
39880;SDS011;25554;44.954;10.068;2023-12-22T04:53:31;0.88;;;0.43;;
39880;SDS011;25554;44.954;10.068;2023-12-22T04:55:58;1.45;;;0.73;;
39880;SDS011;25554;44.954;10.068;2023-12-22T04:58:24;2.47;;;0.57;;
39880;SDS011;25554;44.954;10.068;2023-12-22T05:00:51;3.30;;;0.80;;
39880;SDS011;25554;44.954;10.068;2023-12-22T05:03:17;1.83;;;0.63;;
39880;SDS011;25554;44.954;10.068;2023-12-22T05:05:43;1.48;;;0.70;;
39880;SDS011;25554;44.954;10.068;2023-12-22T05:10:36;1.40;;;0.57;;
39880;SDS011;25554;44.954;10.068;2023-12-22T05:13:02;1.70;;;0.47;;
39880;SDS011;25554;44.954;10.068;2023-12-22T05:15:29;1.25;;;0.60;;
39880;SDS011;25554;44.954;10.068;2023-12-22T05:17:58;2.70;;;0.60;;
39880;SDS011;25554;44.954;10.068;2023-12-22T05:20:24;4.32;;;0.90;;
39880;SDS011;25554;44.954;10.068;2023-12-22T05:22:51;2.25;;;0.75;;
39880;SDS011;25554;44.954;10.068;2023-12-22T05:25:17;0.55;;;0.55;;
39880;SDS011;25554;44.954;10.068;2023-12-22T05:27:44;1.58;;;0.63;;
39880;SDS011;25554;44.954;10.068;2023-12-22T05:30:10;2.13;;;0.85;;
39880;SDS011;25554;44.954;10.068;2023-12-22T05:32:37;4.97;;;0.70;;
39880;SDS011;25554;44.954;10.068;2023-12-22T05:35:04;2.13;;;0.80;;
39880;SDS011;25554;44.954;10.068;2023-12-22T05:37:30;1.10;;;0.70;;
39880;SDS011;25554;44.954;10.068;2023-12-22T05:39:57;1.50;;;0.90;;
39880;SDS011;25554;44.954;10.068;2023-12-22T05:42:23;3.20;;;0.88;;
39880;SDS011;25554;44.954;10.068;2023-12-22T05:44:49;1.58;;;0.70;;
39880;SDS011;25554;44.954;10.068;2023-12-22T05:47:16;1.60;;;0.88;;
39880;SDS011;25554;44.954;10.068;2023-12-22T05:52:09;1.67;;;0.80;;
39880;SDS011;25554;44.954;10.068;2023-12-22T05:54:35;1.10;;;0.52;;
39880;SDS011;25554;44.954;10.068;2023-12-22T05:57:05;1.02;;;0.50;;
39880;SDS011;25554;44.954;10.068;2023-12-22T05:59:33;3.05;;;0.70;;
39880;SDS011;25554;44.954;10.068;2023-12-22T06:02:00;2.10;;;0.47;;
39880;SDS011;25554;44.954;10.068;2023-12-22T06:04:31;4.45;;;0.70;;
39880;SDS011;25554;44.954;10.068;2023-12-22T06:09:23;2.00;;;0.63;;
39880;SDS011;25554;44.954;10.068;2023-12-22T06:14:16;0.90;;;0.52;;
39880;SDS011;25554;44.954;10.068;2023-12-22T06:16:42;0.85;;;0.60;;
39880;SDS011;25554;44.954;10.068;2023-12-22T06:19:09;1.77;;;0.75;;
39880;SDS011;25554;44.954;10.068;2023-12-22T06:21:39;1.13;;;0.50;;
39880;SDS011;25554;44.954;10.068;2023-12-22T06:24:05;2.25;;;0.70;;
39880;SDS011;25554;44.954;10.068;2023-12-22T06:26:32;1.75;;;0.70;;
39880;SDS011;25554;44.954;10.068;2023-12-22T06:28:59;1.00;;;0.40;;
39880;SDS011;25554;44.954;10.068;2023-12-22T06:33:51;1.17;;;0.60;;
39880;SDS011;25554;44.954;10.068;2023-12-22T06:36:22;2.15;;;0.60;;
39880;SDS011;25554;44.954;10.068;2023-12-22T06:38:52;2.08;;;1.05;;
39880;SDS011;25554;44.954;10.068;2023-12-22T06:41:29;1.40;;;0.60;;
39880;SDS011;25554;44.954;10.068;2023-12-22T06:43:57;3.15;;;0.70;;
39880;SDS011;25554;44.954;10.068;2023-12-22T06:46:27;1.90;;;0.60;;
39880;SDS011;25554;44.954;10.068;2023-12-22T06:48:57;3.42;;;0.68;;
39880;SDS011;25554;44.954;10.068;2023-12-22T06:51:25;2.88;;;0.47;;
39880;SDS011;25554;44.954;10.068;2023-12-22T06:53:55;0.75;;;0.60;;
39880;SDS011;25554;44.954;10.068;2023-12-22T06:56:24;0.82;;;0.50;;
39880;SDS011;25554;44.954;10.068;2023-12-22T06:58:53;4.88;;;0.30;;
39880;SDS011;25554;44.954;10.068;2023-12-22T07:01:23;4.55;;;0.88;;
39880;SDS011;25554;44.954;10.068;2023-12-22T07:03:53;2.05;;;0.77;;
39880;SDS011;25554;44.954;10.068;2023-12-22T07:06:20;1.50;;;0.70;;
39880;SDS011;25554;44.954;10.068;2023-12-22T07:11:50;1.20;;;0.60;;
39880;SDS011;25554;44.954;10.068;2023-12-22T07:14:20;2.17;;;0.50;;
39880;SDS011;25554;44.954;10.068;2023-12-22T07:16:50;1.70;;;0.47;;
39880;SDS011;25554;44.954;10.068;2023-12-22T07:22:53;2.13;;;0.45;;
39880;SDS011;25554;44.954;10.068;2023-12-22T07:25:24;0.57;;;0.40;;
39880;SDS011;25554;44.954;10.068;2023-12-22T07:27:58;1.52;;;0.50;;
39880;SDS011;25554;44.954;10.068;2023-12-22T07:30:24;2.92;;;0.55;;
39880;SDS011;25554;44.954;10.068;2023-12-22T07:32:51;1.05;;;0.45;;
39880;SDS011;25554;44.954;10.068;2023-12-22T07:35:18;1.25;;;0.63;;
39880;SDS011;25554;44.954;10.068;2023-12-22T07:37:44;5.05;;;0.43;;
39880;SDS011;25554;44.954;10.068;2023-12-22T07:40:11;5.60;;;0.90;;
39880;SDS011;25554;44.954;10.068;2023-12-22T07:42:37;2.22;;;0.80;;
39880;SDS011;25554;44.954;10.068;2023-12-22T07:45:04;7.95;;;0.60;;
39880;SDS011;25554;44.954;10.068;2023-12-22T07:47:32;0.57;;;0.52;;
39880;SDS011;25554;44.954;10.068;2023-12-22T07:49:59;2.80;;;0.70;;
39880;SDS011;25554;44.954;10.068;2023-12-22T07:52:25;1.13;;;0.50;;
39880;SDS011;25554;44.954;10.068;2023-12-22T07:54:51;1.77;;;0.43;;
39880;SDS011;25554;44.954;10.068;2023-12-22T07:57:18;4.85;;;0.55;;
39880;SDS011;25554;44.954;10.068;2023-12-22T07:59:44;2.03;;;0.60;;
39880;SDS011;25554;44.954;10.068;2023-12-22T08:02:10;2.80;;;0.50;;
39880;SDS011;25554;44.954;10.068;2023-12-22T08:04:37;4.60;;;0.60;;
39880;SDS011;25554;44.954;10.068;2023-12-22T08:07:04;3.33;;;0.50;;
39880;SDS011;25554;44.954;10.068;2023-12-22T08:09:30;2.28;;;0.60;;
39880;SDS011;25554;44.954;10.068;2023-12-22T08:11:58;2.05;;;0.60;;
39880;SDS011;25554;44.954;10.068;2023-12-22T08:14:24;0.80;;;0.52;;
39880;SDS011;25554;44.954;10.068;2023-12-22T08:16:51;0.93;;;0.40;;
39880;SDS011;25554;44.954;10.068;2023-12-22T08:19:18;1.45;;;0.40;;
39880;SDS011;25554;44.954;10.068;2023-12-22T08:21:44;7.05;;;0.60;;
39880;SDS011;25554;44.954;10.068;2023-12-22T08:24:10;1.35;;;0.73;;
39880;SDS011;25554;44.954;10.068;2023-12-22T08:26:37;0.35;;;0.30;;
39880;SDS011;25554;44.954;10.068;2023-12-22T08:29:03;0.40;;;0.40;;
39880;SDS011;25554;44.954;10.068;2023-12-22T08:31:29;1.52;;;0.38;;
39880;SDS011;25554;44.954;10.068;2023-12-22T08:33:55;1.00;;;0.30;;
39880;SDS011;25554;44.954;10.068;2023-12-22T08:36:22;2.65;;;0.40;;
39880;SDS011;25554;44.954;10.068;2023-12-22T08:38:48;0.80;;;0.47;;
39880;SDS011;25554;44.954;10.068;2023-12-22T08:41:14;0.43;;;0.20;;
39880;SDS011;25554;44.954;10.068;2023-12-22T08:43:41;0.35;;;0.20;;
39880;SDS011;25554;44.954;10.068;2023-12-22T08:46:08;0.73;;;0.40;;
39880;SDS011;25554;44.954;10.068;2023-12-22T08:48:35;2.05;;;0.30;;
39880;SDS011;25554;44.954;10.068;2023-12-22T08:51:01;0.55;;;0.28;;
39880;SDS011;25554;44.954;10.068;2023-12-22T08:53:29;1.77;;;1.10;;
39880;SDS011;25554;44.954;10.068;2023-12-22T08:55:59;0.95;;;0.32;;
39880;SDS011;25554;44.954;10.068;2023-12-22T08:58:26;1.88;;;0.20;;
39880;SDS011;25554;44.954;10.068;2023-12-22T09:00:52;1.35;;;0.30;;
39880;SDS011;25554;44.954;10.068;2023-12-22T09:03:19;0.63;;;0.30;;
39880;SDS011;25554;44.954;10.068;2023-12-22T09:05:45;0.50;;;0.40;;
39880;SDS011;25554;44.954;10.068;2023-12-22T09:08:12;2.25;;;0.30;;
39880;SDS011;25554;44.954;10.068;2023-12-22T09:13:05;0.45;;;0.30;;
39880;SDS011;25554;44.954;10.068;2023-12-22T09:15:31;1.27;;;0.40;;
39880;SDS011;25554;44.954;10.068;2023-12-22T09:17:58;1.40;;;0.50;;
39880;SDS011;25554;44.954;10.068;2023-12-22T09:20:24;0.70;;;0.28;;
39880;SDS011;25554;44.954;10.068;2023-12-22T09:22:50;2.33;;;0.38;;
39880;SDS011;25554;44.954;10.068;2023-12-22T09:25:17;0.85;;;0.32;;
39880;SDS011;25554;44.954;10.068;2023-12-22T09:27:43;0.98;;;0.57;;
39880;SDS011;25554;44.954;10.068;2023-12-22T09:30:09;3.80;;;0.35;;
39880;SDS011;25554;44.954;10.068;2023-12-22T09:35:02;3.95;;;0.55;;
39880;SDS011;25554;44.954;10.068;2023-12-22T09:39:55;1.73;;;0.30;;
39880;SDS011;25554;44.954;10.068;2023-12-22T09:42:21;2.97;;;0.40;;
39880;SDS011;25554;44.954;10.068;2023-12-22T09:44:49;0.73;;;0.30;;
39880;SDS011;25554;44.954;10.068;2023-12-22T09:47:20;1.00;;;0.35;;
39880;SDS011;25554;44.954;10.068;2023-12-22T09:49:48;1.30;;;0.57;;
39880;SDS011;25554;44.954;10.068;2023-12-22T09:52:15;3.85;;;0.65;;
39880;SDS011;25554;44.954;10.068;2023-12-22T09:54:42;1.70;;;0.30;;
39880;SDS011;25554;44.954;10.068;2023-12-22T09:57:10;2.47;;;0.47;;
39880;SDS011;25554;44.954;10.068;2023-12-22T09:59:37;2.28;;;0.45;;
39880;SDS011;25554;44.954;10.068;2023-12-22T10:02:04;0.60;;;0.20;;
39880;SDS011;25554;44.954;10.068;2023-12-22T10:04:33;0.43;;;0.20;;
39880;SDS011;25554;44.954;10.068;2023-12-22T10:07:00;2.92;;;0.30;;
39880;SDS011;25554;44.954;10.068;2023-12-22T10:09:29;0.43;;;0.20;;
39880;SDS011;25554;44.954;10.068;2023-12-22T10:11:56;1.15;;;0.38;;
39880;SDS011;25554;44.954;10.068;2023-12-22T10:14:24;0.17;;;0.10;;
39880;SDS011;25554;44.954;10.068;2023-12-22T10:16:52;0.22;;;0.10;;
39880;SDS011;25554;44.954;10.068;2023-12-22T10:19:19;1.08;;;0.20;;
39880;SDS011;25554;44.954;10.068;2023-12-22T10:21:47;0.47;;;0.15;;
39880;SDS011;25554;44.954;10.068;2023-12-22T10:27:13;1.23;;;0.10;;
39880;SDS011;25554;44.954;10.068;2023-12-22T10:29:42;0.55;;;0.20;;
39880;SDS011;25554;44.954;10.068;2023-12-22T10:32:08;2.72;;;0.13;;
39880;SDS011;25554;44.954;10.068;2023-12-22T10:37:01;13.00;;;7.95;;
39880;SDS011;25554;44.954;10.068;2023-12-22T10:41:55;2.42;;;0.30;;
39880;SDS011;25554;44.954;10.068;2023-12-22T10:44:25;0.00;;;0.00;;
39880;SDS011;25554;44.954;10.068;2023-12-22T10:46:52;0.40;;;0.10;;
39880;SDS011;25554;44.954;10.068;2023-12-22T10:49:20;0.28;;;0.10;;
39880;SDS011;25554;44.954;10.068;2023-12-22T10:51:47;2.10;;;0.20;;
39880;SDS011;25554;44.954;10.068;2023-12-22T10:54:13;0.77;;;0.38;;
39880;SDS011;25554;44.954;10.068;2023-12-22T10:59:07;2.57;;;0.30;;
39880;SDS011;25554;44.954;10.068;2023-12-22T11:01:38;0.20;;;0.20;;
39880;SDS011;25554;44.954;10.068;2023-12-22T11:04:09;1.45;;;0.03;;
39880;SDS011;25554;44.954;10.068;2023-12-22T11:09:10;1.98;;;0.20;;
39880;SDS011;25554;44.954;10.068;2023-12-22T11:11:37;0.70;;;0.10;;
39880;SDS011;25554;44.954;10.068;2023-12-22T11:14:05;0.52;;;0.10;;
39880;SDS011;25554;44.954;10.068;2023-12-22T11:16:33;0.77;;;0.20;;
39880;SDS011;25554;44.954;10.068;2023-12-22T11:19:03;0.65;;;0.10;;
39880;SDS011;25554;44.954;10.068;2023-12-22T11:21:30;0.10;;;0.10;;
39880;SDS011;25554;44.954;10.068;2023-12-22T11:26:23;0.70;;;0.40;;
39880;SDS011;25554;44.954;10.068;2023-12-22T11:28:51;0.40;;;0.10;;
39880;SDS011;25554;44.954;10.068;2023-12-22T11:31:18;0.95;;;0.20;;
39880;SDS011;25554;44.954;10.068;2023-12-22T11:33:46;0.43;;;0.10;;
39880;SDS011;25554;44.954;10.068;2023-12-22T11:36:16;1.45;;;0.20;;
39880;SDS011;25554;44.954;10.068;2023-12-22T11:38:44;0.40;;;0.20;;
39880;SDS011;25554;44.954;10.068;2023-12-22T11:41:18;1.00;;;0.22;;
39880;SDS011;25554;44.954;10.068;2023-12-22T11:43:54;0.20;;;0.03;;
39880;SDS011;25554;44.954;10.068;2023-12-22T11:46:22;0.68;;;0.20;;
39880;SDS011;25554;44.954;10.068;2023-12-22T11:48:49;0.32;;;0.00;;
39880;SDS011;25554;44.954;10.068;2023-12-22T11:51:17;1.50;;;0.10;;
39880;SDS011;25554;44.954;10.068;2023-12-22T11:53:44;0.10;;;0.05;;
39880;SDS011;25554;44.954;10.068;2023-12-22T11:56:11;0.38;;;0.10;;
39880;SDS011;25554;44.954;10.068;2023-12-22T11:58:42;5.40;;;0.22;;
39880;SDS011;25554;44.954;10.068;2023-12-22T12:01:17;0.43;;;0.20;;
39880;SDS011;25554;44.954;10.068;2023-12-22T12:08:56;0.57;;;0.10;;
39880;SDS011;25554;44.954;10.068;2023-12-22T12:11:23;0.15;;;0.10;;
39880;SDS011;25554;44.954;10.068;2023-12-22T12:14:31;0.10;;;0.05;;
39880;SDS011;25554;44.954;10.068;2023-12-22T12:17:08;0.43;;;0.13;;
39880;SDS011;25554;44.954;10.068;2023-12-22T12:19:38;0.17;;;0.03;;
39880;SDS011;25554;44.954;10.068;2023-12-22T12:22:05;0.30;;;0.20;;
39880;SDS011;25554;44.954;10.068;2023-12-22T12:24:31;0.70;;;0.20;;
39880;SDS011;25554;44.954;10.068;2023-12-22T12:29:24;0.22;;;0.10;;
39880;SDS011;25554;44.954;10.068;2023-12-22T12:31:50;0.73;;;0.10;;
39880;SDS011;25554;44.954;10.068;2023-12-22T12:36:46;0.30;;;0.20;;
39880;SDS011;25554;44.954;10.068;2023-12-22T12:39:16;0.43;;;0.38;;
39880;SDS011;25554;44.954;10.068;2023-12-22T12:41:46;0.50;;;0.22;;
39880;SDS011;25554;44.954;10.068;2023-12-22T12:44:19;0.30;;;0.20;;
39880;SDS011;25554;44.954;10.068;2023-12-22T12:46:47;0.57;;;0.30;;
39880;SDS011;25554;44.954;10.068;2023-12-22T12:49:14;0.40;;;0.20;;
39880;SDS011;25554;44.954;10.068;2023-12-22T12:51:52;1.15;;;0.20;;
39880;SDS011;25554;44.954;10.068;2023-12-22T12:54:18;1.13;;;0.13;;
39880;SDS011;25554;44.954;10.068;2023-12-22T12:59:15;0.15;;;0.15;;
39880;SDS011;25554;44.954;10.068;2023-12-22T13:01:46;0.47;;;0.15;;
39880;SDS011;25554;44.954;10.068;2023-12-22T13:04:14;0.43;;;0.13;;
39880;SDS011;25554;44.954;10.068;2023-12-22T13:09:14;0.20;;;0.10;;
39880;SDS011;25554;44.954;10.068;2023-12-22T13:11:41;1.08;;;0.47;;
39880;SDS011;25554;44.954;10.068;2023-12-22T13:14:09;0.63;;;0.10;;
39880;SDS011;25554;44.954;10.068;2023-12-22T13:16:36;0.70;;;0.30;;
39880;SDS011;25554;44.954;10.068;2023-12-22T13:19:05;0.98;;;0.30;;
39880;SDS011;25554;44.954;10.068;2023-12-22T13:21:31;0.45;;;0.10;;
39880;SDS011;25554;44.954;10.068;2023-12-22T13:24:11;1.38;;;0.80;;
39880;SDS011;25554;44.954;10.068;2023-12-22T13:26:39;1.00;;;0.30;;
39880;SDS011;25554;44.954;10.068;2023-12-22T13:29:06;0.55;;;0.20;;
39880;SDS011;25554;44.954;10.068;2023-12-22T13:31:33;0.98;;;0.25;;
39880;SDS011;25554;44.954;10.068;2023-12-22T13:34:02;1.08;;;0.40;;
39880;SDS011;25554;44.954;10.068;2023-12-22T13:39:00;0.43;;;0.13;;
39880;SDS011;25554;44.954;10.068;2023-12-22T13:43:53;0.10;;;0.10;;
39880;SDS011;25554;44.954;10.068;2023-12-22T13:46:21;1.90;;;0.30;;
39880;SDS011;25554;44.954;10.068;2023-12-22T13:48:53;0.10;;;0.10;;
39880;SDS011;25554;44.954;10.068;2023-12-22T13:51:20;0.08;;;0.00;;
39880;SDS011;25554;44.954;10.068;2023-12-22T13:53:47;0.20;;;0.20;;
39880;SDS011;25554;44.954;10.068;2023-12-22T13:56:14;0.30;;;0.20;;
39880;SDS011;25554;44.954;10.068;2023-12-22T13:58:44;0.20;;;0.10;;
39880;SDS011;25554;44.954;10.068;2023-12-22T14:01:15;0.30;;;0.25;;
39880;SDS011;25554;44.954;10.068;2023-12-22T14:03:44;1.77;;;0.20;;
39880;SDS011;25554;44.954;10.068;2023-12-22T14:06:13;0.55;;;0.30;;
39880;SDS011;25554;44.954;10.068;2023-12-22T14:08:40;0.88;;;0.50;;
39880;SDS011;25554;44.954;10.068;2023-12-22T14:11:09;3.83;;;0.77;;
39880;SDS011;25554;44.954;10.068;2023-12-22T14:13:36;0.50;;;0.20;;
39880;SDS011;25554;44.954;10.068;2023-12-22T14:16:05;0.52;;;0.20;;
39880;SDS011;25554;44.954;10.068;2023-12-22T14:18:32;0.50;;;0.20;;
39880;SDS011;25554;44.954;10.068;2023-12-22T14:20:59;0.95;;;0.30;;
39880;SDS011;25554;44.954;10.068;2023-12-22T14:23:26;0.82;;;0.30;;
39880;SDS011;25554;44.954;10.068;2023-12-22T14:25:52;0.38;;;0.20;;
39880;SDS011;25554;44.954;10.068;2023-12-22T14:28:19;1.55;;;0.22;;
39880;SDS011;25554;44.954;10.068;2023-12-22T14:30:46;0.77;;;0.03;;
39880;SDS011;25554;44.954;10.068;2023-12-22T14:33:12;1.98;;;0.20;;
39880;SDS011;25554;44.954;10.068;2023-12-22T14:35:39;1.42;;;0.20;;
39880;SDS011;25554;44.954;10.068;2023-12-22T14:38:06;0.45;;;0.22;;
39880;SDS011;25554;44.954;10.068;2023-12-22T14:42:59;0.55;;;0.30;;
39880;SDS011;25554;44.954;10.068;2023-12-22T14:45:27;0.65;;;0.38;;
39880;SDS011;25554;44.954;10.068;2023-12-22T14:47:54;0.70;;;0.20;;
39880;SDS011;25554;44.954;10.068;2023-12-22T14:50:20;2.88;;;0.45;;
39880;SDS011;25554;44.954;10.068;2023-12-22T14:52:46;1.75;;;0.20;;
39880;SDS011;25554;44.954;10.068;2023-12-22T14:55:13;0.80;;;0.20;;
39880;SDS011;25554;44.954;10.068;2023-12-22T15:00:06;1.50;;;0.52;;
39880;SDS011;25554;44.954;10.068;2023-12-22T15:02:32;0.80;;;0.30;;
39880;SDS011;25554;44.954;10.068;2023-12-22T15:07:25;0.63;;;0.30;;
39880;SDS011;25554;44.954;10.068;2023-12-22T15:09:51;1.33;;;0.70;;
39880;SDS011;25554;44.954;10.068;2023-12-22T15:12:18;0.22;;;0.17;;
39880;SDS011;25554;44.954;10.068;2023-12-22T15:14:44;1.50;;;0.52;;
39880;SDS011;25554;44.954;10.068;2023-12-22T15:17:11;0.50;;;0.28;;
39880;SDS011;25554;44.954;10.068;2023-12-22T15:19:41;2.60;;;0.43;;
39880;SDS011;25554;44.954;10.068;2023-12-22T15:22:11;4.35;;;0.40;;
39880;SDS011;25554;44.954;10.068;2023-12-22T15:24:39;0.90;;;0.43;;
39880;SDS011;25554;44.954;10.068;2023-12-22T15:27:09;2.58;;;0.77;;
39880;SDS011;25554;44.954;10.068;2023-12-22T15:29:36;2.60;;;0.98;;
39880;SDS011;25554;44.954;10.068;2023-12-22T15:32:02;2.05;;;0.90;;
39880;SDS011;25554;44.954;10.068;2023-12-22T15:34:28;2.97;;;0.88;;
39880;SDS011;25554;44.954;10.068;2023-12-22T15:36:55;0.80;;;0.40;;
39880;SDS011;25554;44.954;10.068;2023-12-22T15:39:21;3.00;;;1.42;;
39880;SDS011;25554;44.954;10.068;2023-12-22T15:41:47;3.65;;;1.85;;
39880;SDS011;25554;44.954;10.068;2023-12-22T15:46:40;3.55;;;1.27;;
39880;SDS011;25554;44.954;10.068;2023-12-22T15:49:07;4.32;;;0.90;;
39880;SDS011;25554;44.954;10.068;2023-12-22T15:51:33;2.70;;;0.43;;
39880;SDS011;25554;44.954;10.068;2023-12-22T15:54:00;2.28;;;1.05;;
39880;SDS011;25554;44.954;10.068;2023-12-22T15:56:28;2.05;;;0.68;;
39880;SDS011;25554;44.954;10.068;2023-12-22T15:58:54;7.55;;;4.88;;
39880;SDS011;25554;44.954;10.068;2023-12-22T16:01:21;1.15;;;0.50;;
39880;SDS011;25554;44.954;10.068;2023-12-22T16:03:47;1.75;;;0.50;;
39880;SDS011;25554;44.954;10.068;2023-12-22T16:06:16;0.90;;;0.52;;
39880;SDS011;25554;44.954;10.068;2023-12-22T16:08:43;2.85;;;1.10;;
39880;SDS011;25554;44.954;10.068;2023-12-22T16:11:10;1.40;;;0.60;;
39880;SDS011;25554;44.954;10.068;2023-12-22T16:13:36;1.52;;;0.50;;
39880;SDS011;25554;44.954;10.068;2023-12-22T16:16:03;2.78;;;0.50;;